sensor_id;sensor_type;location;lat;lon;timestamp;P1;durP1;ratioP1;P2;durP2;ratioP2
14975;SDS011;7584;60.468;25.126;2023-12-20T00:02:08;2.37;;;0.60;;
14975;SDS011;7584;60.468;25.126;2023-12-20T00:04:33;3.87;;;1.00;;
14975;SDS011;7584;60.468;25.126;2023-12-20T00:06:59;2.33;;;0.50;;
14975;SDS011;7584;60.468;25.126;2023-12-20T00:09:24;3.17;;;0.60;;
14975;SDS011;7584;60.468;25.126;2023-12-20T00:11:50;3.90;;;0.67;;
14975;SDS011;7584;60.468;25.126;2023-12-20T00:14:15;2.10;;;0.60;;
14975;SDS011;7584;60.468;25.126;2023-12-20T00:16:40;1.90;;;0.60;;
14975;SDS011;7584;60.468;25.126;2023-12-20T00:19:06;2.00;;;0.63;;
14975;SDS011;7584;60.468;25.126;2023-12-20T00:21:31;1.47;;;0.53;;
14975;SDS011;7584;60.468;25.126;2023-12-20T00:23:56;2.17;;;0.60;;
14975;SDS011;7584;60.468;25.126;2023-12-20T00:26:22;2.47;;;0.70;;
14975;SDS011;7584;60.468;25.126;2023-12-20T00:28:50;4.43;;;0.60;;
14975;SDS011;7584;60.468;25.126;2023-12-20T00:31:15;2.43;;;1.30;;
14975;SDS011;7584;60.468;25.126;2023-12-20T00:33:40;7.53;;;0.80;;
14975;SDS011;7584;60.468;25.126;2023-12-20T00:36:08;0.80;;;0.43;;
14975;SDS011;7584;60.468;25.126;2023-12-20T00:38:33;0.73;;;0.30;;
14975;SDS011;7584;60.468;25.126;2023-12-20T00:40:59;2.77;;;0.57;;
14975;SDS011;7584;60.468;25.126;2023-12-20T00:43:24;1.20;;;0.50;;
14975;SDS011;7584;60.468;25.126;2023-12-20T00:45:50;5.00;;;0.50;;
14975;SDS011;7584;60.468;25.126;2023-12-20T00:48:16;2.67;;;0.43;;
14975;SDS011;7584;60.468;25.126;2023-12-20T00:50:41;1.97;;;0.50;;
14975;SDS011;7584;60.468;25.126;2023-12-20T00:53:17;1.30;;;0.70;;
14975;SDS011;7584;60.468;25.126;2023-12-20T00:55:42;2.17;;;0.50;;
14975;SDS011;7584;60.468;25.126;2023-12-20T00:58:09;2.30;;;0.30;;
14975;SDS011;7584;60.468;25.126;2023-12-20T01:00:34;2.23;;;0.50;;
14975;SDS011;7584;60.468;25.126;2023-12-20T01:03:01;2.77;;;0.53;;
14975;SDS011;7584;60.468;25.126;2023-12-20T01:05:26;4.43;;;0.40;;
14975;SDS011;7584;60.468;25.126;2023-12-20T01:07:52;1.37;;;0.50;;
14975;SDS011;7584;60.468;25.126;2023-12-20T01:10:17;3.13;;;0.53;;
14975;SDS011;7584;60.468;25.126;2023-12-20T01:12:43;3.73;;;0.50;;
14975;SDS011;7584;60.468;25.126;2023-12-20T01:15:08;1.17;;;0.50;;
14975;SDS011;7584;60.468;25.126;2023-12-20T01:17:34;1.17;;;0.50;;
14975;SDS011;7584;60.468;25.126;2023-12-20T01:20:01;3.20;;;0.40;;
14975;SDS011;7584;60.468;25.126;2023-12-20T01:22:26;1.33;;;0.57;;
14975;SDS011;7584;60.468;25.126;2023-12-20T01:24:51;4.23;;;0.70;;
14975;SDS011;7584;60.468;25.126;2023-12-20T01:27:31;4.40;;;0.50;;
14975;SDS011;7584;60.468;25.126;2023-12-20T01:29:57;3.30;;;0.40;;
14975;SDS011;7584;60.468;25.126;2023-12-20T01:32:22;2.17;;;0.80;;
14975;SDS011;7584;60.468;25.126;2023-12-20T01:34:47;1.83;;;0.30;;
14975;SDS011;7584;60.468;25.126;2023-12-20T01:37:14;1.40;;;0.63;;
14975;SDS011;7584;60.468;25.126;2023-12-20T01:39:40;1.10;;;0.30;;
14975;SDS011;7584;60.468;25.126;2023-12-20T01:42:05;1.50;;;0.50;;
14975;SDS011;7584;60.468;25.126;2023-12-20T01:44:30;4.77;;;0.60;;
14975;SDS011;7584;60.468;25.126;2023-12-20T01:46:56;4.93;;;0.60;;
14975;SDS011;7584;60.468;25.126;2023-12-20T01:49:27;0.90;;;0.40;;
14975;SDS011;7584;60.468;25.126;2023-12-20T01:51:52;1.63;;;0.40;;
14975;SDS011;7584;60.468;25.126;2023-12-20T01:54:18;1.53;;;0.60;;
14975;SDS011;7584;60.468;25.126;2023-12-20T01:56:44;1.83;;;0.50;;
14975;SDS011;7584;60.468;25.126;2023-12-20T01:59:10;3.13;;;0.50;;
14975;SDS011;7584;60.468;25.126;2023-12-20T02:01:35;1.53;;;0.40;;
14975;SDS011;7584;60.468;25.126;2023-12-20T02:04:01;2.17;;;0.47;;
14975;SDS011;7584;60.468;25.126;2023-12-20T02:06:29;2.03;;;0.40;;
14975;SDS011;7584;60.468;25.126;2023-12-20T02:08:55;2.73;;;0.50;;
14975;SDS011;7584;60.468;25.126;2023-12-20T02:11:21;3.83;;;0.47;;
14975;SDS011;7584;60.468;25.126;2023-12-20T02:13:46;1.57;;;0.50;;
14975;SDS011;7584;60.468;25.126;2023-12-20T02:16:11;1.70;;;0.40;;
14975;SDS011;7584;60.468;25.126;2023-12-20T02:18:37;4.50;;;0.60;;
14975;SDS011;7584;60.468;25.126;2023-12-20T02:21:03;1.60;;;0.40;;
14975;SDS011;7584;60.468;25.126;2023-12-20T02:23:29;4.33;;;0.70;;
14975;SDS011;7584;60.468;25.126;2023-12-20T02:26:12;3.97;;;0.60;;
14975;SDS011;7584;60.468;25.126;2023-12-20T02:28:39;3.90;;;0.93;;
14975;SDS011;7584;60.468;25.126;2023-12-20T02:31:04;6.60;;;0.80;;
14975;SDS011;7584;60.468;25.126;2023-12-20T02:33:30;2.80;;;1.07;;
14975;SDS011;7584;60.468;25.126;2023-12-20T02:35:55;4.53;;;0.70;;
14975;SDS011;7584;60.468;25.126;2023-12-20T02:38:20;3.57;;;0.57;;
14975;SDS011;7584;60.468;25.126;2023-12-20T02:40:46;1.90;;;0.40;;
14975;SDS011;7584;60.468;25.126;2023-12-20T02:43:11;1.57;;;0.37;;
14975;SDS011;7584;60.468;25.126;2023-12-20T02:45:36;1.90;;;0.50;;
14975;SDS011;7584;60.468;25.126;2023-12-20T02:48:01;2.50;;;0.50;;
14975;SDS011;7584;60.468;25.126;2023-12-20T02:50:27;3.67;;;0.50;;
14975;SDS011;7584;60.468;25.126;2023-12-20T02:52:53;1.33;;;0.87;;
14975;SDS011;7584;60.468;25.126;2023-12-20T02:55:18;3.03;;;0.67;;
14975;SDS011;7584;60.468;25.126;2023-12-20T02:57:43;3.33;;;0.50;;
14975;SDS011;7584;60.468;25.126;2023-12-20T03:00:16;2.60;;;0.30;;
14975;SDS011;7584;60.468;25.126;2023-12-20T03:02:42;2.77;;;0.50;;
14975;SDS011;7584;60.468;25.126;2023-12-20T03:05:07;3.23;;;0.80;;
14975;SDS011;7584;60.468;25.126;2023-12-20T03:07:32;1.97;;;0.73;;
14975;SDS011;7584;60.468;25.126;2023-12-20T03:09:58;1.17;;;0.57;;
14975;SDS011;7584;60.468;25.126;2023-12-20T03:12:23;1.13;;;0.50;;
14975;SDS011;7584;60.468;25.126;2023-12-20T03:14:48;1.40;;;0.60;;
14975;SDS011;7584;60.468;25.126;2023-12-20T03:17:15;5.03;;;1.10;;
14975;SDS011;7584;60.468;25.126;2023-12-20T03:25:31;1.53;;;0.33;;
14975;SDS011;7584;60.468;25.126;2023-12-20T03:27:57;4.20;;;0.90;;
14975;SDS011;7584;60.468;25.126;2023-12-20T03:33:28;0.97;;;0.47;;
14975;SDS011;7584;60.468;25.126;2023-12-20T03:35:53;3.63;;;0.70;;
14975;SDS011;7584;60.468;25.126;2023-12-20T03:38:29;0.77;;;0.50;;
14975;SDS011;7584;60.468;25.126;2023-12-20T03:40:54;1.20;;;0.60;;
14975;SDS011;7584;60.468;25.126;2023-12-20T03:43:19;1.73;;;0.60;;
14975;SDS011;7584;60.468;25.126;2023-12-20T03:45:46;1.50;;;0.50;;
14975;SDS011;7584;60.468;25.126;2023-12-20T03:48:12;0.83;;;0.50;;
14975;SDS011;7584;60.468;25.126;2023-12-20T03:50:37;3.13;;;0.70;;
14975;SDS011;7584;60.468;25.126;2023-12-20T03:56:10;2.83;;;0.70;;
14975;SDS011;7584;60.468;25.126;2023-12-20T03:58:36;1.70;;;0.60;;
14975;SDS011;7584;60.468;25.126;2023-12-20T04:01:01;1.60;;;0.30;;
14975;SDS011;7584;60.468;25.126;2023-12-20T04:06:29;1.97;;;0.47;;
14975;SDS011;7584;60.468;25.126;2023-12-20T04:08:56;0.50;;;0.50;;
14975;SDS011;7584;60.468;25.126;2023-12-20T04:17:18;1.13;;;0.50;;
14975;SDS011;7584;60.468;25.126;2023-12-20T04:19:43;2.00;;;0.70;;
14975;SDS011;7584;60.468;25.126;2023-12-20T04:22:25;7.73;;;1.00;;
14975;SDS011;7584;60.468;25.126;2023-12-20T04:24:51;1.57;;;0.20;;
14975;SDS011;7584;60.468;25.126;2023-12-20T04:27:16;1.23;;;0.50;;
14975;SDS011;7584;60.468;25.126;2023-12-20T04:29:44;1.13;;;0.43;;
14975;SDS011;7584;60.468;25.126;2023-12-20T04:32:12;1.87;;;0.40;;
14975;SDS011;7584;60.468;25.126;2023-12-20T04:34:38;2.83;;;0.53;;
14975;SDS011;7584;60.468;25.126;2023-12-20T04:37:03;2.37;;;0.50;;
14975;SDS011;7584;60.468;25.126;2023-12-20T04:42:27;3.70;;;0.50;;
14975;SDS011;7584;60.468;25.126;2023-12-20T04:44:52;5.20;;;0.67;;
14975;SDS011;7584;60.468;25.126;2023-12-20T04:50:07;0.90;;;0.30;;
14975;SDS011;7584;60.468;25.126;2023-12-20T04:52:32;1.20;;;0.60;;
14975;SDS011;7584;60.468;25.126;2023-12-20T04:57:53;1.57;;;0.60;;
14975;SDS011;7584;60.468;25.126;2023-12-20T05:00:18;2.03;;;0.60;;
14975;SDS011;7584;60.468;25.126;2023-12-20T05:02:44;4.87;;;0.60;;
14975;SDS011;7584;60.468;25.126;2023-12-20T05:05:14;1.87;;;0.60;;
14975;SDS011;7584;60.468;25.126;2023-12-20T05:07:40;0.73;;;0.50;;
14975;SDS011;7584;60.468;25.126;2023-12-20T05:10:05;3.20;;;0.70;;
14975;SDS011;7584;60.468;25.126;2023-12-20T05:12:33;3.30;;;0.77;;
14975;SDS011;7584;60.468;25.126;2023-12-20T05:14:59;2.07;;;0.60;;
14975;SDS011;7584;60.468;25.126;2023-12-20T05:17:25;4.37;;;0.90;;
14975;SDS011;7584;60.468;25.126;2023-12-20T05:19:51;2.20;;;0.50;;
14975;SDS011;7584;60.468;25.126;2023-12-20T05:22:16;2.50;;;0.80;;
14975;SDS011;7584;60.468;25.126;2023-12-20T05:24:42;3.27;;;0.80;;
14975;SDS011;7584;60.468;25.126;2023-12-20T05:27:08;1.37;;;0.40;;
14975;SDS011;7584;60.468;25.126;2023-12-20T05:32:38;4.87;;;0.70;;
14975;SDS011;7584;60.468;25.126;2023-12-20T05:35:03;2.23;;;0.60;;
14975;SDS011;7584;60.468;25.126;2023-12-20T05:37:29;5.10;;;0.70;;
14975;SDS011;7584;60.468;25.126;2023-12-20T05:39:54;1.87;;;0.90;;
14975;SDS011;7584;60.468;25.126;2023-12-20T05:42:19;0.73;;;0.40;;
14975;SDS011;7584;60.468;25.126;2023-12-20T05:44:44;1.97;;;0.50;;
14975;SDS011;7584;60.468;25.126;2023-12-20T05:47:10;1.00;;;0.60;;
14975;SDS011;7584;60.468;25.126;2023-12-20T05:49:36;3.17;;;0.50;;
14975;SDS011;7584;60.468;25.126;2023-12-20T05:52:02;5.13;;;0.63;;
14975;SDS011;7584;60.468;25.126;2023-12-20T05:54:29;2.60;;;0.73;;
14975;SDS011;7584;60.468;25.126;2023-12-20T05:56:55;2.47;;;0.53;;
14975;SDS011;7584;60.468;25.126;2023-12-20T05:59:21;4.20;;;0.90;;
14975;SDS011;7584;60.468;25.126;2023-12-20T06:01:46;1.23;;;0.33;;
14975;SDS011;7584;60.468;25.126;2023-12-20T06:04:13;2.47;;;1.03;;
14975;SDS011;7584;60.468;25.126;2023-12-20T06:06:41;2.93;;;0.63;;
14975;SDS011;7584;60.468;25.126;2023-12-20T06:09:07;4.23;;;0.70;;
14975;SDS011;7584;60.468;25.126;2023-12-20T06:11:34;4.23;;;1.00;;
14975;SDS011;7584;60.468;25.126;2023-12-20T06:13:59;3.23;;;0.50;;
14975;SDS011;7584;60.468;25.126;2023-12-20T06:16:28;5.23;;;0.60;;
14975;SDS011;7584;60.468;25.126;2023-12-20T06:18:53;3.27;;;0.73;;
14975;SDS011;7584;60.468;25.126;2023-12-20T06:21:18;3.40;;;0.73;;
14975;SDS011;7584;60.468;25.126;2023-12-20T06:23:43;2.70;;;0.70;;
14975;SDS011;7584;60.468;25.126;2023-12-20T06:26:09;2.87;;;0.70;;
14975;SDS011;7584;60.468;25.126;2023-12-20T06:28:35;3.33;;;0.67;;
14975;SDS011;7584;60.468;25.126;2023-12-20T06:31:01;3.20;;;0.70;;
14975;SDS011;7584;60.468;25.126;2023-12-20T06:33:26;2.93;;;0.70;;
14975;SDS011;7584;60.468;25.126;2023-12-20T06:38:49;2.80;;;0.50;;
14975;SDS011;7584;60.468;25.126;2023-12-20T06:41:15;1.90;;;0.60;;
14975;SDS011;7584;60.468;25.126;2023-12-20T06:43:40;2.80;;;0.70;;
14975;SDS011;7584;60.468;25.126;2023-12-20T06:46:07;2.17;;;0.60;;
14975;SDS011;7584;60.468;25.126;2023-12-20T06:48:33;1.17;;;0.60;;
14975;SDS011;7584;60.468;25.126;2023-12-20T06:50:59;3.57;;;1.07;;
14975;SDS011;7584;60.468;25.126;2023-12-20T06:53:29;2.93;;;0.83;;
14975;SDS011;7584;60.468;25.126;2023-12-20T06:55:54;4.13;;;0.70;;
14975;SDS011;7584;60.468;25.126;2023-12-20T06:58:22;4.40;;;1.50;;
14975;SDS011;7584;60.468;25.126;2023-12-20T07:00:47;3.53;;;0.60;;
14975;SDS011;7584;60.468;25.126;2023-12-20T07:03:13;2.50;;;0.60;;
14975;SDS011;7584;60.468;25.126;2023-12-20T07:05:38;3.70;;;0.80;;
14975;SDS011;7584;60.468;25.126;2023-12-20T07:08:04;7.70;;;0.80;;
14975;SDS011;7584;60.468;25.126;2023-12-20T07:10:30;4.30;;;0.80;;
14975;SDS011;7584;60.468;25.126;2023-12-20T07:12:55;2.67;;;0.83;;
14975;SDS011;7584;60.468;25.126;2023-12-20T07:15:22;6.23;;;0.90;;
14975;SDS011;7584;60.468;25.126;2023-12-20T07:17:48;5.43;;;0.90;;
14975;SDS011;7584;60.468;25.126;2023-12-20T07:20:15;1.53;;;0.50;;
14975;SDS011;7584;60.468;25.126;2023-12-20T07:22:41;4.07;;;0.93;;
14975;SDS011;7584;60.468;25.126;2023-12-20T07:25:06;1.67;;;0.50;;
14975;SDS011;7584;60.468;25.126;2023-12-20T07:27:32;3.93;;;0.70;;
14975;SDS011;7584;60.468;25.126;2023-12-20T07:29:57;2.03;;;0.50;;
14975;SDS011;7584;60.468;25.126;2023-12-20T07:32:23;3.00;;;1.00;;
14975;SDS011;7584;60.468;25.126;2023-12-20T07:34:49;4.60;;;0.80;;
14975;SDS011;7584;60.468;25.126;2023-12-20T07:37:14;1.67;;;0.67;;
14975;SDS011;7584;60.468;25.126;2023-12-20T07:39:40;3.57;;;1.00;;
14975;SDS011;7584;60.468;25.126;2023-12-20T07:42:06;1.93;;;0.60;;
14975;SDS011;7584;60.468;25.126;2023-12-20T07:44:31;3.87;;;1.10;;
14975;SDS011;7584;60.468;25.126;2023-12-20T07:46:56;1.50;;;0.50;;
14975;SDS011;7584;60.468;25.126;2023-12-20T07:49:25;3.50;;;0.90;;
14975;SDS011;7584;60.468;25.126;2023-12-20T07:51:51;3.53;;;0.70;;
14975;SDS011;7584;60.468;25.126;2023-12-20T07:54:16;3.93;;;0.80;;
14975;SDS011;7584;60.468;25.126;2023-12-20T07:56:41;3.53;;;1.43;;
14975;SDS011;7584;60.468;25.126;2023-12-20T07:59:06;4.17;;;0.60;;
14975;SDS011;7584;60.468;25.126;2023-12-20T08:01:32;3.67;;;0.60;;
14975;SDS011;7584;60.468;25.126;2023-12-20T08:04:00;5.43;;;0.73;;
14975;SDS011;7584;60.468;25.126;2023-12-20T08:09:31;4.83;;;1.23;;
14975;SDS011;7584;60.468;25.126;2023-12-20T08:15:01;5.13;;;0.77;;
14975;SDS011;7584;60.468;25.126;2023-12-20T08:17:26;4.07;;;0.80;;
14975;SDS011;7584;60.468;25.126;2023-12-20T08:19:52;2.37;;;0.80;;
14975;SDS011;7584;60.468;25.126;2023-12-20T08:22:17;5.80;;;0.70;;
14975;SDS011;7584;60.468;25.126;2023-12-20T08:24:43;4.10;;;0.60;;
14975;SDS011;7584;60.468;25.126;2023-12-20T08:27:08;2.63;;;0.73;;
14975;SDS011;7584;60.468;25.126;2023-12-20T08:29:35;2.60;;;0.83;;
14975;SDS011;7584;60.468;25.126;2023-12-20T08:32:01;5.40;;;0.83;;
14975;SDS011;7584;60.468;25.126;2023-12-20T08:34:27;4.50;;;0.63;;
14975;SDS011;7584;60.468;25.126;2023-12-20T08:36:52;0.80;;;0.50;;
14975;SDS011;7584;60.468;25.126;2023-12-20T08:39:18;5.87;;;1.00;;
14975;SDS011;7584;60.468;25.126;2023-12-20T08:41:43;4.33;;;0.90;;
14975;SDS011;7584;60.468;25.126;2023-12-20T08:44:09;4.87;;;0.53;;
14975;SDS011;7584;60.468;25.126;2023-12-20T08:46:34;2.77;;;0.90;;
14975;SDS011;7584;60.468;25.126;2023-12-20T08:49:00;3.50;;;0.70;;
14975;SDS011;7584;60.468;25.126;2023-12-20T08:51:27;0.80;;;0.33;;
14975;SDS011;7584;60.468;25.126;2023-12-20T08:53:52;0.60;;;0.40;;
14975;SDS011;7584;60.468;25.126;2023-12-20T08:56:18;1.90;;;0.60;;
14975;SDS011;7584;60.468;25.126;2023-12-20T08:58:45;3.50;;;0.70;;
14975;SDS011;7584;60.468;25.126;2023-12-20T09:01:10;2.17;;;0.67;;
14975;SDS011;7584;60.468;25.126;2023-12-20T09:03:36;1.37;;;0.57;;
14975;SDS011;7584;60.468;25.126;2023-12-20T09:06:01;1.87;;;0.60;;
14975;SDS011;7584;60.468;25.126;2023-12-20T09:08:26;4.37;;;0.83;;
14975;SDS011;7584;60.468;25.126;2023-12-20T09:10:53;3.30;;;0.77;;
14975;SDS011;7584;60.468;25.126;2023-12-20T09:13:19;2.10;;;0.57;;
14975;SDS011;7584;60.468;25.126;2023-12-20T09:15:47;1.47;;;0.60;;
14975;SDS011;7584;60.468;25.126;2023-12-20T09:18:13;4.20;;;0.60;;
14975;SDS011;7584;60.468;25.126;2023-12-20T09:20:40;2.90;;;0.80;;
14975;SDS011;7584;60.468;25.126;2023-12-20T09:23:05;2.67;;;1.03;;
14975;SDS011;7584;60.468;25.126;2023-12-20T09:25:30;2.73;;;0.57;;
14975;SDS011;7584;60.468;25.126;2023-12-20T09:27:56;3.30;;;0.60;;
14975;SDS011;7584;60.468;25.126;2023-12-20T09:30:21;5.23;;;1.80;;
14975;SDS011;7584;60.468;25.126;2023-12-20T09:32:47;4.10;;;0.73;;
14975;SDS011;7584;60.468;25.126;2023-12-20T09:35:12;3.13;;;0.60;;
14975;SDS011;7584;60.468;25.126;2023-12-20T09:37:37;2.23;;;0.60;;
14975;SDS011;7584;60.468;25.126;2023-12-20T09:40:03;4.07;;;0.67;;
14975;SDS011;7584;60.468;25.126;2023-12-20T09:42:39;2.83;;;0.70;;
14975;SDS011;7584;60.468;25.126;2023-12-20T09:45:08;1.20;;;0.63;;
14975;SDS011;7584;60.468;25.126;2023-12-20T09:47:35;4.77;;;0.53;;
14975;SDS011;7584;60.468;25.126;2023-12-20T09:50:00;2.33;;;0.80;;
14975;SDS011;7584;60.468;25.126;2023-12-20T09:52:26;3.50;;;1.10;;
14975;SDS011;7584;60.468;25.126;2023-12-20T09:54:52;3.13;;;0.80;;
14975;SDS011;7584;60.468;25.126;2023-12-20T09:57:18;4.13;;;1.00;;
14975;SDS011;7584;60.468;25.126;2023-12-20T09:59:44;1.00;;;0.50;;
14975;SDS011;7584;60.468;25.126;2023-12-20T10:02:11;3.87;;;0.73;;
14975;SDS011;7584;60.468;25.126;2023-12-20T10:04:37;1.67;;;0.90;;
14975;SDS011;7584;60.468;25.126;2023-12-20T10:07:05;4.30;;;1.00;;
14975;SDS011;7584;60.468;25.126;2023-12-20T10:09:31;2.50;;;0.83;;
14975;SDS011;7584;60.468;25.126;2023-12-20T10:11:56;3.77;;;0.70;;
14975;SDS011;7584;60.468;25.126;2023-12-20T10:14:23;4.97;;;0.63;;
14975;SDS011;7584;60.468;25.126;2023-12-20T10:16:49;2.50;;;0.50;;
14975;SDS011;7584;60.468;25.126;2023-12-20T10:19:16;3.37;;;1.17;;
14975;SDS011;7584;60.468;25.126;2023-12-20T10:21:41;3.70;;;0.83;;
14975;SDS011;7584;60.468;25.126;2023-12-20T10:24:07;6.33;;;0.97;;
14975;SDS011;7584;60.468;25.126;2023-12-20T10:26:32;3.73;;;1.07;;
14975;SDS011;7584;60.468;25.126;2023-12-20T10:28:59;2.33;;;0.80;;
14975;SDS011;7584;60.468;25.126;2023-12-20T10:33:57;2.90;;;0.93;;
14975;SDS011;7584;60.468;25.126;2023-12-20T10:36:23;2.73;;;0.50;;
14975;SDS011;7584;60.468;25.126;2023-12-20T10:38:49;2.53;;;0.87;;
14975;SDS011;7584;60.468;25.126;2023-12-20T10:41:15;2.83;;;0.53;;
14975;SDS011;7584;60.468;25.126;2023-12-20T10:43:42;5.67;;;0.63;;
14975;SDS011;7584;60.468;25.126;2023-12-20T10:46:08;9.20;;;0.97;;
14975;SDS011;7584;60.468;25.126;2023-12-20T10:48:33;4.43;;;1.10;;
14975;SDS011;7584;60.468;25.126;2023-12-20T10:50:59;5.47;;;0.70;;
14975;SDS011;7584;60.468;25.126;2023-12-20T10:53:26;2.50;;;0.87;;
14975;SDS011;7584;60.468;25.126;2023-12-20T10:55:52;5.23;;;1.20;;
14975;SDS011;7584;60.468;25.126;2023-12-20T10:58:19;2.07;;;0.83;;
14975;SDS011;7584;60.468;25.126;2023-12-20T11:00:45;3.40;;;0.97;;
14975;SDS011;7584;60.468;25.126;2023-12-20T11:03:11;3.03;;;0.90;;
14975;SDS011;7584;60.468;25.126;2023-12-20T11:05:43;1.43;;;0.70;;
14975;SDS011;7584;60.468;25.126;2023-12-20T11:08:32;6.17;;;1.10;;
14975;SDS011;7584;60.468;25.126;2023-12-20T11:13:36;2.70;;;0.90;;
14975;SDS011;7584;60.468;25.126;2023-12-20T11:16:02;3.47;;;0.80;;
14975;SDS011;7584;60.468;25.126;2023-12-20T11:18:28;4.00;;;0.57;;
14975;SDS011;7584;60.468;25.126;2023-12-20T11:20:54;4.37;;;1.43;;
14975;SDS011;7584;60.468;25.126;2023-12-20T11:23:20;3.80;;;0.90;;
14975;SDS011;7584;60.468;25.126;2023-12-20T11:25:53;2.10;;;0.67;;
14975;SDS011;7584;60.468;25.126;2023-12-20T11:28:22;4.50;;;0.80;;
14975;SDS011;7584;60.468;25.126;2023-12-20T11:30:52;1.90;;;0.83;;
14975;SDS011;7584;60.468;25.126;2023-12-20T11:33:21;4.57;;;1.00;;
14975;SDS011;7584;60.468;25.126;2023-12-20T11:35:46;2.87;;;0.63;;
14975;SDS011;7584;60.468;25.126;2023-12-20T11:38:12;5.80;;;0.90;;
14975;SDS011;7584;60.468;25.126;2023-12-20T11:40:38;3.63;;;0.90;;
14975;SDS011;7584;60.468;25.126;2023-12-20T11:43:04;2.47;;;1.00;;
14975;SDS011;7584;60.468;25.126;2023-12-20T11:45:30;3.67;;;0.90;;
14975;SDS011;7584;60.468;25.126;2023-12-20T11:47:57;5.07;;;1.00;;
14975;SDS011;7584;60.468;25.126;2023-12-20T11:50:23;2.87;;;1.00;;
14975;SDS011;7584;60.468;25.126;2023-12-20T11:52:49;6.77;;;1.10;;
14975;SDS011;7584;60.468;25.126;2023-12-20T11:55:14;2.33;;;0.60;;
14975;SDS011;7584;60.468;25.126;2023-12-20T11:57:43;5.13;;;1.00;;
14975;SDS011;7584;60.468;25.126;2023-12-20T12:00:09;3.67;;;0.87;;
14975;SDS011;7584;60.468;25.126;2023-12-20T12:02:34;4.10;;;0.93;;
14975;SDS011;7584;60.468;25.126;2023-12-20T12:04:59;1.03;;;0.60;;
14975;SDS011;7584;60.468;25.126;2023-12-20T12:07:26;2.53;;;0.97;;
14975;SDS011;7584;60.468;25.126;2023-12-20T12:09:52;4.47;;;1.30;;
14975;SDS011;7584;60.468;25.126;2023-12-20T12:12:17;6.17;;;1.87;;
14975;SDS011;7584;60.468;25.126;2023-12-20T12:14:45;4.53;;;1.40;;
14975;SDS011;7584;60.468;25.126;2023-12-20T12:17:13;2.63;;;1.13;;
14975;SDS011;7584;60.468;25.126;2023-12-20T12:19:39;2.33;;;0.93;;
14975;SDS011;7584;60.468;25.126;2023-12-20T12:22:09;3.73;;;0.80;;
14975;SDS011;7584;60.468;25.126;2023-12-20T12:24:42;3.43;;;1.03;;
14975;SDS011;7584;60.468;25.126;2023-12-20T12:27:07;3.60;;;0.80;;
14975;SDS011;7584;60.468;25.126;2023-12-20T12:29:34;1.80;;;0.77;;
14975;SDS011;7584;60.468;25.126;2023-12-20T12:32:00;2.70;;;0.73;;
14975;SDS011;7584;60.468;25.126;2023-12-20T12:34:29;4.67;;;0.73;;
14975;SDS011;7584;60.468;25.126;2023-12-20T12:36:55;7.57;;;2.30;;
14975;SDS011;7584;60.468;25.126;2023-12-20T12:39:20;3.03;;;0.80;;
14975;SDS011;7584;60.468;25.126;2023-12-20T12:41:46;2.97;;;0.70;;
14975;SDS011;7584;60.468;25.126;2023-12-20T12:44:13;8.73;;;1.10;;
14975;SDS011;7584;60.468;25.126;2023-12-20T12:46:40;5.63;;;1.00;;
14975;SDS011;7584;60.468;25.126;2023-12-20T12:49:06;2.50;;;0.70;;
14975;SDS011;7584;60.468;25.126;2023-12-20T12:51:32;2.83;;;1.00;;
14975;SDS011;7584;60.468;25.126;2023-12-20T12:53:57;5.93;;;0.60;;
14975;SDS011;7584;60.468;25.126;2023-12-20T12:56:22;4.00;;;1.10;;
14975;SDS011;7584;60.468;25.126;2023-12-20T12:58:48;5.70;;;0.80;;
14975;SDS011;7584;60.468;25.126;2023-12-20T13:01:13;4.80;;;1.10;;
14975;SDS011;7584;60.468;25.126;2023-12-20T13:03:39;4.73;;;1.10;;
14975;SDS011;7584;60.468;25.126;2023-12-20T13:06:04;6.90;;;1.30;;
14975;SDS011;7584;60.468;25.126;2023-12-20T13:08:33;5.50;;;1.10;;
14975;SDS011;7584;60.468;25.126;2023-12-20T13:10:59;3.90;;;1.17;;
14975;SDS011;7584;60.468;25.126;2023-12-20T13:13:26;8.00;;;2.20;;
14975;SDS011;7584;60.468;25.126;2023-12-20T13:15:54;3.80;;;1.10;;
14975;SDS011;7584;60.468;25.126;2023-12-20T13:18:20;2.03;;;1.03;;
14975;SDS011;7584;60.468;25.126;2023-12-20T13:20:45;13.20;;;1.53;;
14975;SDS011;7584;60.468;25.126;2023-12-20T13:23:11;3.93;;;1.00;;
14975;SDS011;7584;60.468;25.126;2023-12-20T13:25:36;8.27;;;1.30;;
14975;SDS011;7584;60.468;25.126;2023-12-20T13:31:20;2.97;;;0.80;;
14975;SDS011;7584;60.468;25.126;2023-12-20T14:05:38;2.93;;;0.80;;
14975;SDS011;7584;60.468;25.126;2023-12-20T14:08:04;3.23;;;0.80;;
14975;SDS011;7584;60.468;25.126;2023-12-20T14:10:29;3.60;;;1.27;;
14975;SDS011;7584;60.468;25.126;2023-12-20T14:16:01;6.37;;;1.50;;
14975;SDS011;7584;60.468;25.126;2023-12-20T14:18:29;5.03;;;1.23;;
14975;SDS011;7584;60.468;25.126;2023-12-20T14:36:10;3.30;;;1.20;;
14975;SDS011;7584;60.468;25.126;2023-12-20T14:39:08;3.73;;;1.20;;
14975;SDS011;7584;60.468;25.126;2023-12-20T14:48:44;3.43;;;1.60;;
14975;SDS011;7584;60.468;25.126;2023-12-20T14:51:45;2.37;;;1.20;;
14975;SDS011;7584;60.468;25.126;2023-12-20T15:21:22;9.30;;;4.63;;
14975;SDS011;7584;60.468;25.126;2023-12-20T15:24:20;10.63;;;4.10;;
14975;SDS011;7584;60.468;25.126;2023-12-20T15:27:25;12.93;;;4.23;;
14975;SDS011;7584;60.468;25.126;2023-12-20T15:29:51;12.03;;;4.63;;
14975;SDS011;7584;60.468;25.126;2023-12-20T15:32:17;8.47;;;3.93;;
14975;SDS011;7584;60.468;25.126;2023-12-20T15:34:44;8.63;;;3.77;;
14975;SDS011;7584;60.468;25.126;2023-12-20T15:37:09;11.93;;;3.93;;
14975;SDS011;7584;60.468;25.126;2023-12-20T15:39:34;11.00;;;3.73;;
14975;SDS011;7584;60.468;25.126;2023-12-20T15:42:01;6.40;;;3.03;;
14975;SDS011;7584;60.468;25.126;2023-12-20T15:44:26;5.80;;;3.43;;
14975;SDS011;7584;60.468;25.126;2023-12-20T15:46:52;6.13;;;2.93;;
14975;SDS011;7584;60.468;25.126;2023-12-20T15:49:17;9.13;;;3.13;;
14975;SDS011;7584;60.468;25.126;2023-12-20T15:51:44;8.03;;;3.50;;
14975;SDS011;7584;60.468;25.126;2023-12-20T15:54:13;7.80;;;4.33;;
14975;SDS011;7584;60.468;25.126;2023-12-20T15:56:38;6.30;;;4.20;;
14975;SDS011;7584;60.468;25.126;2023-12-20T15:59:06;8.60;;;4.77;;
14975;SDS011;7584;60.468;25.126;2023-12-20T16:01:31;9.33;;;4.07;;
14975;SDS011;7584;60.468;25.126;2023-12-20T16:03:56;10.27;;;4.53;;
14975;SDS011;7584;60.468;25.126;2023-12-20T16:06:22;9.50;;;4.27;;
14975;SDS011;7584;60.468;25.126;2023-12-20T16:08:48;8.03;;;3.40;;
14975;SDS011;7584;60.468;25.126;2023-12-20T16:11:13;12.13;;;5.10;;
14975;SDS011;7584;60.468;25.126;2023-12-20T16:13:38;13.90;;;5.03;;
14975;SDS011;7584;60.468;25.126;2023-12-20T16:16:04;8.33;;;4.13;;
14975;SDS011;7584;60.468;25.126;2023-12-20T16:18:30;7.93;;;4.13;;
14975;SDS011;7584;60.468;25.126;2023-12-20T16:20:56;8.57;;;4.37;;
14975;SDS011;7584;60.468;25.126;2023-12-20T16:23:22;7.53;;;4.53;;
14975;SDS011;7584;60.468;25.126;2023-12-20T16:25:47;12.70;;;4.57;;
14975;SDS011;7584;60.468;25.126;2023-12-20T16:28:13;8.17;;;4.47;;
14975;SDS011;7584;60.468;25.126;2023-12-20T16:30:40;6.67;;;3.80;;
14975;SDS011;7584;60.468;25.126;2023-12-20T16:33:05;7.40;;;3.77;;
14975;SDS011;7584;60.468;25.126;2023-12-20T16:35:30;10.60;;;3.90;;
14975;SDS011;7584;60.468;25.126;2023-12-20T16:37:55;6.87;;;4.07;;
14975;SDS011;7584;60.468;25.126;2023-12-20T16:40:21;10.67;;;4.00;;
14975;SDS011;7584;60.468;25.126;2023-12-20T16:42:51;9.73;;;3.87;;
14975;SDS011;7584;60.468;25.126;2023-12-20T16:45:21;7.70;;;4.03;;
14975;SDS011;7584;60.468;25.126;2023-12-20T16:47:46;9.17;;;4.47;;
14975;SDS011;7584;60.468;25.126;2023-12-20T16:50:12;6.77;;;4.37;;
14975;SDS011;7584;60.468;25.126;2023-12-20T16:52:37;9.20;;;5.00;;
14975;SDS011;7584;60.468;25.126;2023-12-20T16:55:10;6.57;;;4.10;;
14975;SDS011;7584;60.468;25.126;2023-12-20T16:57:35;8.60;;;4.40;;
14975;SDS011;7584;60.468;25.126;2023-12-20T17:00:01;10.17;;;4.47;;